createdAt,value
2023-04-01T00:00:02.564Z,10.12
2023-04-01T00:02:30.799Z,10.10
2023-04-01T00:04:58.709Z,10.08
2023-04-01T00:07:26.780Z,10.07
2023-04-01T00:09:58.536Z,10.06
2023-04-01T00:12:26.402Z,10.05
2023-04-01T00:14:54.067Z,10.08
2023-04-01T00:17:22.753Z,10.12
2023-04-01T00:19:50.518Z,10.11
2023-04-01T00:22:18.207Z,10.08
2023-04-01T00:24:45.942Z,10.06
2023-04-01T00:27:13.612Z,10.05
2023-04-01T00:29:41.307Z,10.04
2023-04-01T00:32:09.031Z,10.01
2023-04-01T00:34:36.698Z,10.01
2023-04-01T00:37:04.458Z,10.00
2023-04-01T00:39:32.428Z,9.99
2023-04-01T00:42:00.128Z,10.02
2023-04-01T00:44:27.854Z,10.01
2023-04-01T00:46:55.568Z,9.99
2023-04-01T00:49:23.279Z,9.97
2023-04-01T00:51:51.225Z,9.95
2023-04-01T00:54:18.911Z,9.93
2023-04-01T00:56:46.706Z,9.90
2023-04-01T00:59:14.445Z,9.86
2023-04-01T01:01:42.292Z,9.82
2023-04-01T01:04:10.174Z,9.79
2023-04-01T01:06:40.212Z,9.81
2023-04-01T01:09:08.881Z,9.78
2023-04-01T01:11:40.885Z,9.74
2023-04-01T01:14:11.068Z,9.71
2023-04-01T01:16:38.913Z,9.69
2023-04-01T01:19:06.692Z,9.65
2023-04-01T01:21:34.454Z,9.61
2023-04-01T01:24:04.366Z,9.62
2023-04-01T01:26:32.350Z,9.64
2023-04-01T01:29:00.116Z,9.61
2023-04-01T01:31:27.818Z,9.57
2023-04-01T01:33:55.630Z,9.54
2023-04-01T01:36:23.425Z,9.51
2023-04-01T01:38:51.159Z,9.46
2023-04-01T01:41:18.828Z,9.42
2023-04-01T01:43:46.491Z,9.41
2023-04-01T01:46:14.201Z,9.42
2023-04-01T01:48:42.212Z,9.37
2023-04-01T01:51:09.877Z,9.33
2023-04-01T01:53:37.640Z,9.28
2023-04-01T01:56:05.307Z,9.25
2023-04-01T01:58:33.066Z,9.23
2023-04-01T02:01:01.134Z,9.25
2023-04-01T02:03:28.795Z,9.25
2023-04-01T02:05:56.662Z,9.21
2023-04-01T02:08:24.324Z,9.17
2023-04-01T02:10:52.092Z,9.18
2023-04-01T02:13:19.748Z,9.18
2023-04-01T02:15:47.891Z,9.19
2023-04-01T02:18:15.793Z,9.18
2023-04-01T02:20:43.451Z,9.18
2023-04-01T02:23:11.319Z,9.21
2023-04-01T02:25:39.080Z,9.26
2023-04-01T02:28:07.354Z,9.27
2023-04-01T02:30:35.016Z,9.28
2023-04-01T02:33:02.815Z,9.29
2023-04-01T02:35:31.016Z,9.30
2023-04-01T02:37:59.031Z,9.31
2023-04-01T02:40:26.691Z,9.30
2023-04-01T02:42:54.349Z,9.28
2023-04-01T02:45:22.017Z,9.25
2023-04-01T02:47:49.713Z,9.28
2023-04-01T02:50:17.545Z,9.31
2023-04-01T02:52:45.307Z,9.28
2023-04-01T02:55:13.071Z,9.25
2023-04-01T02:57:40.836Z,9.23
2023-04-01T03:00:12.400Z,9.22
2023-04-01T03:02:40.368Z,9.22
2023-04-01T03:05:08.535Z,9.21
2023-04-01T03:07:36.298Z,9.23
2023-04-01T03:10:03.956Z,9.28
2023-04-01T03:12:31.723Z,9.27
2023-04-01T03:14:59.495Z,9.28
2023-04-01T03:17:39.440Z,9.29
2023-04-01T03:20:07.302Z,9.28
2023-04-01T03:22:34.935Z,9.28
2023-04-01T03:25:02.622Z,9.24
2023-04-01T03:27:30.488Z,9.22
2023-04-01T03:29:58.200Z,9.26
2023-04-01T03:32:26.042Z,9.29
2023-04-01T03:34:53.780Z,9.27
2023-04-01T03:37:21.748Z,9.23
2023-04-01T03:39:49.512Z,9.22
2023-04-01T03:42:17.366Z,9.19
2023-04-01T03:44:45.040Z,9.18
2023-04-01T03:47:12.707Z,9.18
2023-04-01T03:49:40.568Z,9.22
2023-04-01T03:52:08.228Z,9.24
2023-04-01T03:54:36.096Z,9.24
2023-04-01T03:57:03.818Z,9.23
2023-04-01T03:59:31.632Z,9.22
2023-04-01T04:01:59.392Z,9.21
2023-04-01T04:04:27.403Z,9.20
2023-04-01T04:06:55.125Z,9.17
2023-04-01T04:09:22.991Z,9.18
2023-04-01T04:11:51.073Z,9.24
2023-04-01T04:14:18.733Z,9.25
2023-04-01T04:16:46.486Z,9.23
2023-04-01T04:19:14.260Z,9.21
2023-04-01T04:21:42.017Z,9.19
2023-04-01T04:24:09.685Z,9.19
2023-04-01T04:26:37.349Z,9.18
2023-04-01T04:29:05.102Z,9.16
2023-04-01T04:31:32.931Z,9.16
2023-04-01T04:34:01.149Z,9.17
2023-04-01T04:36:28.804Z,9.23
2023-04-01T04:38:56.574Z,9.24
2023-04-01T04:41:24.333Z,9.23
2023-04-01T04:43:52.301Z,9.22
2023-04-01T04:46:20.022Z,9.21
2023-04-01T04:48:47.931Z,9.19
2023-04-01T04:51:16.311Z,9.15
2023-04-01T04:53:44.079Z,9.12
2023-04-01T04:56:11.848Z,9.16
2023-04-01T04:58:39.501Z,9.14
2023-04-01T05:01:07.210Z,9.12
2023-04-01T05:03:35.142Z,9.11
2023-04-01T05:06:03.000Z,9.10
2023-04-01T05:08:30.863Z,9.08
2023-04-01T05:10:58.530Z,9.13
2023-04-01T05:13:26.391Z,9.19
2023-04-01T05:15:54.056Z,9.19
2023-04-01T05:18:21.917Z,9.19
2023-04-01T05:20:49.685Z,9.19
2023-04-01T05:23:17.452Z,9.20
2023-04-01T05:25:46.382Z,9.22
2023-04-01T05:28:14.205Z,9.27
2023-04-01T05:30:42.702Z,9.39
2023-04-01T05:33:10.553Z,9.47
2023-04-01T05:35:38.409Z,9.52
2023-04-01T05:38:06.899Z,9.59
2023-04-01T05:40:36.005Z,9.64
2023-04-01T05:43:03.763Z,9.69
2023-04-01T05:45:31.602Z,9.73
2023-04-01T05:47:59.664Z,9.79
2023-04-01T05:50:27.467Z,9.88
2023-04-01T05:52:55.228Z,9.91
2023-04-01T05:55:22.886Z,9.90
2023-04-01T05:57:50.977Z,9.93
2023-04-01T06:00:18.721Z,9.94
2023-04-01T06:02:47.594Z,9.94
2023-04-01T06:05:15.581Z,9.92
2023-04-01T06:07:43.241Z,9.91
2023-04-01T06:10:11.212Z,9.92
2023-04-01T06:12:38.875Z,9.97
2023-04-01T06:15:06.849Z,9.98
2023-04-01T06:17:34.530Z,9.94
2023-04-01T06:20:02.266Z,9.92
2023-04-01T06:22:30.134Z,9.93
2023-04-01T06:24:58.102Z,9.93
2023-04-01T06:27:26.300Z,9.93
2023-04-01T06:29:54.039Z,9.94
2023-04-01T06:32:21.816Z,10.04
2023-04-01T06:34:49.675Z,10.10
2023-04-01T06:37:17.346Z,10.10
2023-04-01T06:39:44.996Z,10.12
2023-04-01T06:42:12.668Z,10.17
2023-04-01T06:44:40.424Z,10.19
2023-04-01T06:47:08.186Z,10.24
2023-04-01T06:49:35.848Z,10.31
2023-04-01T06:52:03.721Z,10.43
2023-04-01T06:54:31.383Z,10.45
2023-04-01T06:56:59.130Z,10.43
2023-04-01T06:59:26.803Z,10.45
2023-04-01T07:01:54.466Z,10.45
2023-04-01T07:04:22.305Z,10.45
2023-04-01T07:06:50.098Z,10.44
2023-04-01T07:09:17.858Z,10.43
2023-04-01T07:11:45.638Z,10.50
2023-04-01T07:14:13.284Z,10.53
2023-04-01T07:16:41.071Z,10.55
2023-04-01T07:19:08.914Z,10.59
2023-04-01T07:21:37.091Z,10.62
2023-04-01T07:24:04.745Z,10.65
2023-04-01T07:26:32.518Z,10.72
2023-04-01T07:29:00.168Z,10.74
2023-04-01T07:31:29.048Z,10.83
2023-04-01T07:33:56.926Z,10.90
2023-04-01T07:36:24.608Z,10.94
2023-04-01T07:38:52.265Z,10.99
2023-04-01T07:41:20.017Z,11.03
2023-04-01T07:43:47.679Z,11.07
2023-04-01T07:46:15.482Z,11.11
2023-04-01T07:48:43.317Z,11.17
2023-04-01T07:51:11.381Z,11.26
2023-04-01T07:53:39.056Z,11.41
2023-04-01T07:56:06.706Z,11.50
2023-04-01T07:58:34.379Z,11.59
2023-04-01T08:01:02.134Z,11.69
2023-04-01T08:03:30.000Z,11.78
2023-04-01T08:05:57.871Z,11.86
2023-04-01T08:08:26.448Z,11.92
2023-04-01T08:10:54.215Z,11.98
2023-04-01T08:13:21.972Z,11.98
2023-04-01T08:15:49.863Z,11.99
2023-04-01T08:18:17.662Z,12.00
2023-04-01T08:20:45.673Z,12.04
2023-04-01T08:23:13.648Z,12.14
2023-04-01T08:25:41.824Z,12.13
2023-04-01T08:28:09.582Z,12.13
2023-04-01T08:30:37.248Z,12.13
2023-04-01T08:33:05.063Z,12.11
2023-04-01T08:35:33.764Z,12.10
2023-04-01T08:38:02.695Z,12.07
2023-04-01T08:40:30.446Z,12.03
2023-04-01T08:42:58.108Z,11.99
2023-04-01T08:45:25.985Z,11.92
2023-04-01T08:47:53.869Z,11.91
2023-04-01T08:50:21.641Z,11.95
2023-04-01T08:52:49.373Z,11.97
2023-04-01T08:55:17.043Z,11.96
2023-04-01T08:57:44.695Z,11.96
2023-04-01T09:00:12.460Z,11.95
2023-04-01T09:02:40.209Z,11.95
2023-04-01T09:05:08.093Z,11.95
2023-04-01T09:07:35.956Z,11.98
2023-04-01T09:10:03.830Z,12.02
2023-04-01T09:12:31.488Z,11.96
2023-04-01T09:14:59.145Z,11.93
2023-04-01T09:17:26.925Z,11.90
2023-04-01T09:19:54.810Z,11.87
2023-04-01T09:22:22.559Z,11.86
2023-04-01T09:24:50.205Z,11.91
2023-04-01T09:27:17.840Z,11.89
2023-04-01T09:29:45.531Z,11.87
2023-04-01T09:32:13.197Z,11.88
2023-04-01T09:34:40.858Z,11.88
2023-04-01T09:37:08.519Z,11.89
2023-04-01T09:39:37.429Z,11.92
2023-04-01T09:42:05.070Z,11.93
2023-04-01T09:44:32.839Z,11.91
2023-04-01T09:47:00.498Z,11.90
2023-04-01T09:49:28.262Z,11.90
2023-04-01T09:51:56.537Z,11.94
2023-04-01T09:54:24.198Z,12.01
2023-04-01T09:56:51.986Z,12.11
2023-04-01T09:59:19.635Z,12.10
2023-04-01T10:01:47.524Z,12.10
2023-04-01T10:04:15.456Z,12.16
2023-04-01T10:06:43.221Z,12.18
2023-04-01T10:09:10.985Z,12.21
2023-04-01T10:11:38.650Z,12.24
2023-04-01T10:14:06.519Z,12.25
2023-04-01T10:16:34.241Z,12.24
2023-04-01T10:19:02.044Z,12.25
2023-04-01T10:21:29.804Z,12.26
2023-04-01T10:23:57.478Z,12.28
2023-04-01T10:26:25.333Z,12.32
2023-04-01T10:28:53.094Z,12.35
2023-04-01T10:31:20.788Z,12.39
2023-04-01T10:33:48.520Z,12.41
2023-04-01T10:36:16.415Z,12.39
2023-04-01T10:38:44.157Z,12.37
2023-04-01T10:41:11.811Z,12.38
2023-04-01T10:43:39.574Z,12.39
2023-04-01T10:46:07.296Z,12.39
2023-04-01T10:48:35.000Z,12.34
2023-04-01T10:51:03.014Z,12.29
2023-04-01T10:53:31.467Z,12.22
2023-04-01T10:55:59.218Z,12.16
2023-04-01T10:58:26.976Z,12.14
2023-04-01T11:00:54.879Z,12.13
2023-04-01T11:03:22.868Z,12.17
2023-04-01T11:05:50.787Z,12.23
2023-04-01T11:08:18.448Z,12.25
2023-04-01T11:10:46.211Z,12.29
2023-04-01T11:13:13.877Z,12.33
2023-04-01T11:15:41.663Z,12.37
2023-04-01T11:18:09.477Z,12.38
2023-04-01T11:20:37.265Z,12.35
2023-04-01T11:23:04.929Z,12.24
2023-04-01T11:25:32.824Z,12.05
2023-04-01T11:28:00.775Z,11.89
2023-04-01T11:30:28.801Z,11.81
2023-04-01T11:32:58.190Z,11.73
2023-04-01T11:35:27.126Z,11.64
2023-04-01T11:37:54.906Z,11.65
2023-04-01T11:40:25.938Z,11.69
2023-04-01T11:42:53.700Z,11.80
2023-04-01T11:45:22.180Z,11.88
2023-04-01T11:47:50.068Z,11.93
2023-04-01T11:50:17.811Z,11.94
2023-04-01T11:52:45.754Z,11.95
2023-04-01T11:55:13.829Z,12.00
2023-04-01T11:57:41.848Z,12.01
2023-04-01T12:00:09.889Z,12.01
2023-04-01T12:02:37.829Z,12.05
2023-04-01T12:05:06.133Z,12.07
2023-04-01T12:07:33.849Z,12.06
2023-04-01T12:10:03.511Z,12.03
2023-04-01T12:12:31.440Z,12.04
2023-04-01T12:14:59.628Z,12.08
2023-04-01T12:17:29.117Z,12.17
2023-04-01T12:19:56.922Z,12.30
2023-04-01T12:22:33.652Z,12.35
2023-04-01T12:25:02.085Z,12.50
2023-04-01T12:27:31.968Z,12.64
2023-04-01T12:29:59.861Z,12.65
2023-04-01T12:32:27.644Z,12.64
2023-04-01T12:34:59.575Z,12.62
2023-04-01T12:37:33.301Z,12.67
2023-04-01T12:40:01.455Z,12.85
2023-04-01T12:42:29.135Z,13.05
2023-04-01T12:44:57.254Z,13.28
2023-04-01T12:47:29.118Z,13.41
2023-04-01T12:49:56.914Z,13.41
2023-04-01T12:52:24.577Z,13.32
2023-04-01T12:54:52.243Z,13.24
2023-04-01T12:57:20.006Z,13.31
2023-04-01T12:59:52.485Z,13.46
2023-04-01T13:02:20.622Z,13.61
2023-04-01T13:04:53.881Z,13.73
2023-04-01T13:10:21.133Z,13.91
2023-04-01T13:12:49.041Z,13.88
2023-04-01T13:15:17.155Z,13.81
2023-04-01T13:17:45.002Z,13.78
2023-04-01T13:20:13.205Z,13.81
2023-04-01T13:22:41.163Z,13.78
2023-04-01T13:25:08.928Z,13.87
2023-04-01T13:27:36.691Z,14.02
2023-04-01T13:30:04.474Z,14.19
2023-04-01T13:32:43.229Z,14.38
2023-04-01T13:35:11.760Z,14.44
2023-04-01T13:37:39.426Z,14.41
2023-04-01T13:40:07.290Z,14.34
2023-04-01T13:42:34.951Z,14.23
2023-04-01T13:45:03.845Z,14.05
2023-04-01T13:47:31.635Z,13.85
2023-04-01T13:49:59.689Z,13.69
2023-04-01T13:52:27.862Z,13.53
2023-04-01T13:54:55.511Z,13.40
2023-04-01T13:57:23.458Z,13.31
2023-04-01T13:59:51.344Z,13.24
2023-04-01T14:02:19.017Z,13.17
2023-04-01T14:04:46.875Z,13.12
2023-04-01T14:07:14.635Z,13.09
2023-04-01T14:09:42.300Z,13.06
2023-04-01T14:12:09.959Z,13.06
2023-04-01T14:14:37.726Z,13.15
2023-04-01T14:17:05.490Z,13.20
2023-04-01T14:19:33.153Z,13.28
2023-04-01T14:22:01.122Z,13.33
2023-04-01T14:24:28.791Z,13.30
2023-04-01T14:26:57.785Z,13.27
2023-04-01T14:29:25.550Z,13.18
2023-04-01T14:31:53.340Z,13.10
2023-04-01T14:34:21.269Z,13.12
2023-04-01T14:36:49.034Z,13.19
2023-04-01T14:39:17.532Z,13.21
2023-04-01T14:41:45.590Z,13.17
2023-04-01T14:44:16.758Z,13.10
2023-04-01T14:46:44.597Z,13.02
2023-04-01T14:49:12.365Z,12.88
2023-04-01T14:51:40.145Z,12.73
2023-04-01T14:57:12.368Z,12.37
2023-04-01T14:59:47.455Z,12.20
2023-04-01T15:02:15.112Z,12.04
2023-04-01T15:04:43.108Z,11.91
2023-04-01T15:07:10.845Z,11.83
2023-04-01T15:09:40.078Z,11.75
2023-04-01T15:12:07.808Z,11.73
2023-04-01T15:14:39.511Z,11.74
2023-04-01T15:17:09.275Z,11.73
2023-04-01T15:19:36.940Z,11.71
2023-04-01T15:22:04.633Z,11.69
2023-04-01T15:24:32.364Z,11.66
2023-04-01T15:26:59.999Z,11.63
2023-04-01T15:29:27.689Z,11.59
2023-04-01T15:31:59.274Z,11.63
2023-04-01T15:34:27.130Z,11.64
2023-04-01T15:36:54.876Z,11.60
2023-04-01T15:39:22.536Z,11.57
2023-04-01T15:41:50.200Z,11.53
2023-04-01T15:44:17.858Z,11.50
2023-04-01T15:46:45.720Z,11.41
2023-04-01T15:49:13.592Z,11.31
2023-04-01T15:51:41.264Z,11.29
2023-04-01T15:54:10.756Z,11.23
2023-04-01T15:56:40.974Z,11.16
2023-04-01T15:59:17.318Z,11.12
2023-04-01T16:01:47.976Z,11.02
2023-04-01T16:04:16.046Z,10.89
2023-04-01T16:06:49.045Z,10.81
2023-04-01T16:09:16.901Z,10.78
2023-04-01T16:11:44.556Z,10.68
2023-04-01T16:14:12.218Z,10.55
2023-04-01T16:16:39.943Z,10.45
2023-04-01T16:19:07.746Z,10.39
2023-04-01T16:21:36.943Z,10.35
2023-04-01T16:24:05.835Z,10.35
2023-04-01T16:26:33.642Z,10.32
2023-04-01T16:29:01.366Z,10.25
2023-04-01T16:31:29.026Z,10.21
2023-04-01T16:33:56.705Z,10.17
2023-04-01T16:36:24.551Z,10.16
2023-04-01T16:38:52.212Z,10.18
2023-04-01T16:41:19.889Z,10.17
2023-04-01T16:43:49.071Z,10.13
2023-04-01T16:46:16.925Z,10.11
2023-04-01T16:48:44.707Z,10.11
2023-04-01T16:51:12.773Z,10.06
2023-04-01T16:53:40.434Z,10.05
2023-04-01T16:56:08.055Z,10.02
2023-04-01T16:58:35.860Z,9.98
2023-04-01T17:01:06.001Z,9.99
2023-04-01T17:03:33.661Z,9.98
2023-04-01T17:06:01.418Z,9.96
2023-04-01T17:08:29.174Z,9.99
2023-04-01T17:10:59.290Z,9.96
2023-04-01T17:13:27.366Z,9.90
2023-04-01T17:15:55.110Z,9.87
2023-04-01T17:18:23.006Z,9.87
2023-04-01T17:20:50.867Z,9.91
2023-04-01T17:23:18.530Z,9.89
2023-04-01T17:25:46.394Z,9.89
2023-04-01T17:28:14.158Z,9.87
2023-04-01T17:30:41.819Z,9.83
2023-04-01T17:33:09.514Z,9.83
2023-04-01T17:35:37.371Z,9.83
2023-04-01T17:38:06.239Z,9.84
2023-04-01T17:40:34.098Z,9.80
2023-04-01T17:43:01.970Z,9.75
2023-04-01T17:45:29.631Z,9.73
2023-04-01T17:47:57.417Z,9.72
2023-04-01T17:50:25.160Z,9.78
2023-04-01T17:52:52.817Z,9.81
2023-04-01T17:55:20.592Z,9.78
2023-04-01T17:57:48.450Z,9.76
2023-04-01T18:00:16.421Z,9.73
2023-04-01T18:02:45.682Z,9.72
2023-04-01T18:05:13.587Z,9.76
2023-04-01T18:07:41.249Z,9.76
2023-04-01T18:10:08.919Z,9.71
2023-04-01T18:12:36.574Z,9.71
2023-04-01T18:15:04.337Z,9.73
2023-04-01T18:17:33.912Z,9.74
2023-04-01T18:20:01.749Z,9.79
2023-04-01T18:22:29.781Z,9.78
2023-04-01T18:24:57.955Z,9.76
2023-04-01T18:27:25.727Z,9.73
2023-04-01T18:29:53.493Z,9.71
2023-04-01T18:32:24.649Z,9.72
2023-04-01T18:34:54.257Z,9.77
2023-04-01T18:37:21.891Z,9.78
2023-04-01T18:39:49.562Z,9.78
2023-04-01T18:42:17.326Z,9.78
2023-04-01T18:44:47.952Z,9.78
2023-04-01T18:47:16.202Z,9.78
2023-04-01T18:49:44.676Z,9.83
2023-04-01T18:52:16.005Z,9.84
2023-04-01T18:54:45.148Z,9.81
2023-04-01T18:57:13.097Z,9.79
2023-04-01T18:59:41.423Z,9.77
2023-04-01T19:02:09.167Z,9.77
2023-04-01T19:04:36.920Z,9.82
2023-04-01T19:07:04.820Z,9.81
2023-04-01T19:09:32.579Z,9.77
2023-04-01T19:12:00.248Z,9.77
2023-04-01T19:14:27.985Z,9.75
2023-04-01T19:16:55.739Z,9.75
2023-04-01T19:19:23.508Z,9.79
2023-04-01T19:21:52.086Z,9.82
2023-04-01T19:24:19.755Z,9.80
2023-04-01T19:26:47.509Z,9.79
2023-04-01T19:29:15.276Z,9.76
2023-04-01T19:31:42.985Z,9.74
2023-04-01T19:34:10.806Z,9.74
2023-04-01T19:36:38.469Z,9.79
2023-04-01T19:39:06.234Z,9.80
2023-04-01T19:41:36.211Z,9.78
2023-04-01T19:44:03.919Z,9.77
2023-04-01T19:46:33.009Z,9.73
2023-04-01T19:49:01.183Z,9.72
2023-04-01T19:51:28.846Z,9.76
2023-04-01T19:53:56.708Z,9.77
2023-04-01T19:56:24.374Z,9.74
2023-04-01T19:58:52.075Z,9.73
2023-04-01T20:01:19.796Z,9.72
2023-04-01T20:03:47.742Z,9.70
2023-04-01T20:06:15.836Z,9.71
2023-04-01T20:08:43.603Z,9.76
2023-04-01T20:11:11.366Z,9.75
2023-04-01T20:13:39.232Z,9.75
2023-04-01T20:16:07.252Z,9.76
2023-04-01T20:18:35.585Z,9.73
2023-04-01T20:21:03.344Z,9.70
2023-04-01T20:23:31.216Z,9.72
2023-04-01T20:25:58.870Z,9.75
2023-04-01T20:28:26.639Z,9.75
2023-04-01T20:30:54.409Z,9.76
2023-04-01T20:33:22.165Z,9.75
2023-04-01T20:35:49.842Z,9.73
2023-04-01T20:38:17.692Z,9.70
2023-04-01T20:40:45.658Z,9.72
2023-04-01T20:43:13.423Z,9.72
2023-04-01T20:45:42.368Z,9.69
2023-04-01T20:48:10.202Z,9.62
2023-04-01T20:50:38.052Z,9.58
2023-04-01T20:53:05.814Z,9.55
2023-04-01T20:55:33.740Z,9.53
2023-04-01T20:58:01.649Z,9.56
2023-04-01T21:00:30.130Z,9.57
2023-04-01T21:02:58.093Z,9.57
2023-04-01T21:05:26.075Z,9.54
2023-04-01T21:07:53.739Z,9.50
2023-04-01T21:10:21.879Z,9.47
2023-04-01T21:12:49.567Z,9.44
2023-04-01T21:15:17.227Z,9.45
2023-04-01T21:17:45.015Z,9.46
2023-04-01T21:20:12.857Z,9.45
2023-04-01T21:22:40.520Z,9.44
2023-04-01T21:25:08.128Z,9.45
2023-04-01T21:27:35.851Z,9.46
2023-04-01T21:30:03.502Z,9.43
2023-04-01T21:32:32.012Z,9.45
2023-04-01T21:34:59.750Z,9.54
2023-04-01T21:37:27.515Z,9.55
2023-04-01T21:39:55.582Z,9.54
2023-04-01T21:42:23.246Z,9.54
2023-04-01T21:44:51.121Z,9.54
2023-04-01T21:47:18.779Z,9.56
2023-04-01T21:49:46.540Z,9.62
2023-04-01T21:52:14.160Z,9.62
2023-04-01T21:54:41.962Z,9.59
2023-04-01T21:57:09.681Z,9.59
2023-04-01T21:59:37.489Z,9.59
2023-04-01T22:02:05.355Z,9.59
2023-04-01T22:04:33.234Z,9.59
2023-04-01T22:07:01.102Z,9.65
2023-04-01T22:09:28.755Z,9.68
2023-04-01T22:11:56.429Z,9.70
2023-04-01T22:14:24.992Z,9.68
2023-04-01T22:16:53.073Z,9.68
2023-04-01T22:19:21.349Z,9.64
2023-04-01T22:21:53.350Z,9.63
2023-04-01T22:24:21.381Z,9.68
2023-04-01T22:26:49.036Z,9.67
2023-04-01T22:29:16.902Z,9.66
2023-04-01T22:31:44.574Z,9.66
2023-04-01T22:34:12.225Z,9.67
2023-04-01T22:36:40.194Z,9.65
2023-04-01T22:39:08.270Z,9.65
2023-04-01T22:41:36.204Z,9.69
2023-04-01T22:44:03.898Z,9.70
2023-04-01T22:46:31.635Z,9.69
2023-04-01T22:48:59.738Z,9.69
2023-04-01T22:51:27.394Z,9.67
2023-04-01T22:53:56.181Z,9.66
2023-04-01T22:56:23.843Z,9.68
2023-04-01T22:58:51.727Z,9.72
2023-04-01T23:01:19.485Z,9.71
2023-04-01T23:03:47.239Z,9.67
2023-04-01T23:06:14.900Z,9.63
2023-04-01T23:08:42.594Z,9.60
2023-04-01T23:11:10.543Z,9.58
2023-04-01T23:13:39.113Z,9.58
2023-04-01T23:16:06.834Z,9.63
2023-04-01T23:18:34.647Z,9.63
2023-04-01T23:21:02.410Z,9.63
2023-04-01T23:23:30.832Z,9.65
2023-04-01T23:25:58.553Z,9.66
2023-04-01T23:28:26.322Z,9.64
2023-04-01T23:30:54.131Z,9.63
2023-04-01T23:33:21.947Z,9.68
2023-04-01T23:35:49.860Z,9.68
2023-04-01T23:38:17.580Z,9.67
2023-04-01T23:40:45.852Z,9.65
2023-04-01T23:43:13.515Z,9.63
2023-04-01T23:45:41.173Z,9.59
2023-04-01T23:48:08.895Z,9.59
2023-04-01T23:50:36.706Z,9.62
2023-04-01T23:53:04.377Z,9.61
2023-04-01T23:55:32.192Z,9.60
2023-04-01T23:58:00.109Z,9.58
